Time,TemperatureF,DewpointF,PressureIn,WindDirection,WindDirectionDegrees,WindSpeedMPH,WindSpeedGustMPH,Humidity,HourlyPrecipIn,Conditions,Clouds,dailyrainin,SoftwareType,DateUTC
2013-03-13 00:00:00,56.4,46.9,30.09,ENE,67,0.0,0.0,70,0.00,,,0.00,WUHU21623XXSP,2013-03-13 07:00:00,
2013-03-13 00:05:00,56.0,46.5,30.09,ENE,67,0.0,0.0,70,0.00,,,0.00,WUHU21623XXSP,2013-03-13 07:05:00,
2013-03-13 00:10:00,55.8,46.3,30.10,ENE,67,0.0,0.0,70,0.00,,,0.00,WUHU21623XXSP,2013-03-13 07:10:00,
2013-03-13 00:15:00,55.8,46.3,30.10,ENE,67,0.0,0.0,70,0.00,,,0.00,WUHU21623XXSP,2013-03-13 07:15:00,
2013-03-13 00:20:00,55.8,46.3,30.10,ENE,67,0.0,0.0,70,0.00,,,0.00,WUHU21623XXSP,2013-03-13 07:20:00,
2013-03-13 00:25:00,55.5,46.4,30.10,ENE,67,0.0,0.0,71,0.00,,,0.00,WUHU21623XXSP,2013-03-13 07:25:00,
2013-03-13 00:30:00,55.5,46.4,30.09,ENE,67,0.0,0.0,71,0.00,,,0.00,WUHU21623XXSP,2013-03-13 07:30:00,
2013-03-13 00:35:00,55.3,46.2,30.09,ENE,67,0.0,0.0,71,0.00,,,0.00,WUHU21623XXSP,2013-03-13 07:35:00,
2013-03-13 00:40:00,55.1,46.3,30.10,ENE,67,0.0,0.0,72,0.00,,,0.00,WUHU21623XXSP,2013-03-13 07:40:00,
2013-03-13 00:45:00,55.1,46.3,30.10,ENE,67,0.0,0.0,72,0.00,,,0.00,WUHU21623XXSP,2013-03-13 07:45:00,
2013-03-13 00:50:00,54.9,46.2,30.10,ENE,67,0.0,0.0,72,0.00,,,0.00,WUHU21623XXSP,2013-03-13 07:50:00,
2013-03-13 00:55:00,54.8,46.1,30.10,ENE,67,0.0,0.0,72,0.00,,,0.00,WUHU21623XXSP,2013-03-13 07:55:00,
2013-03-13 01:00:00,54.8,46.1,30.09,ENE,67,0.0,0.0,72,0.00,,,0.00,WUHU21623XXSP,2013-03-13 08:00:00,
2013-03-13 01:06:00,54.4,46.0,30.09,ENE,67,0.0,0.0,73,0.00,,,0.00,WUHU21623XXSP,2013-03-13 08:06:00,
2013-03-13 01:11:00,54.6,46.2,30.10,ENE,67,0.0,0.0,73,0.00,,,0.00,WUHU21623XXSP,2013-03-13 08:11:00,
2013-03-13 01:16:00,54.4,46.0,30.10,ENE,67,0.0,0.0,73,0.00,,,0.00,WUHU21623XXSP,2013-03-13 08:16:00,
2013-03-13 01:22:00,54.2,45.8,30.10,ENE,67,0.0,0.0,73,0.00,,,0.00,WUHU21623XXSP,2013-03-13 08:22:00,
2013-03-13 01:27:00,54.2,45.8,30.10,ENE,67,0.0,0.0,73,0.00,,,0.00,WUHU21623XXSP,2013-03-13 08:27:00,
2013-03-13 01:32:00,54.2,45.8,30.10,ENE,67,0.0,0.0,73,0.00,,,0.00,WUHU21623XXSP,2013-03-13 08:32:00,
2013-03-13 01:37:00,54.2,46.2,30.10,ENE,67,0.0,0.0,74,0.00,,,0.00,WUHU21623XXSP,2013-03-13 08:37:00,
2013-03-13 01:42:00,54.0,46.0,30.10,ENE,67,0.0,0.0,74,0.00,,,0.00,WUHU21623XXSP,2013-03-13 08:42:00,
2013-03-13 01:47:00,53.7,45.7,30.10,ENE,67,0.0,0.0,74,0.00,,,0.00,WUHU21623XXSP,2013-03-13 08:47:00,
2013-03-13 01:52:00,53.7,45.7,30.10,ENE,67,0.0,0.0,74,0.00,,,0.00,WUHU21623XXSP,2013-03-13 08:52:00,
2013-03-13 01:57:00,53.5,45.5,30.10,ENE,67,0.0,0.0,74,0.00,,,0.00,WUHU21623XXSP,2013-03-13 08:57:00,
2013-03-13 02:02:00,53.5,45.5,30.10,ENE,67,0.0,0.0,74,0.00,,,0.00,WUHU21623XXSP,2013-03-13 09:02:00,
2013-03-13 02:07:00,53.3,45.7,30.10,ENE,67,0.0,0.0,75,0.00,,,0.00,WUHU21623XXSP,2013-03-13 09:07:00,
2013-03-13 02:12:00,53.3,45.7,30.10,ENE,67,0.0,0.0,75,0.00,,,0.00,WUHU21623XXSP,2013-03-13 09:12:00,
2013-03-13 02:17:00,53.3,45.7,30.10,ENE,67,0.0,0.0,75,0.00,,,0.00,WUHU21623XXSP,2013-03-13 09:17:00,
2013-03-13 02:22:00,53.1,45.5,30.10,ENE,67,0.0,0.0,75,0.00,,,0.00,WUHU21623XXSP,2013-03-13 09:22:00,
2013-03-13 02:27:00,53.1,45.5,30.10,ENE,67,0.0,0.0,75,0.00,,,0.00,WUHU21623XXSP,2013-03-13 09:27:00,
2013-03-13 02:32:00,53.0,45.4,30.10,ENE,67,0.0,0.0,75,0.00,,,0.00,WUHU21623XXSP,2013-03-13 09:32:00,
2013-03-13 02:38:00,52.8,45.2,30.10,ENE,67,0.0,0.0,75,0.00,,,0.00,WUHU21623XXSP,2013-03-13 09:38:00,
2013-03-13 02:43:00,52.8,45.2,30.10,ENE,67,0.0,0.0,75,0.00,,,0.00,WUHU21623XXSP,2013-03-13 09:43:00,
2013-03-13 02:48:00,52.8,45.2,30.10,ENE,67,0.0,0.0,75,0.00,,,0.00,WUHU21623XXSP,2013-03-13 09:48:00,
2013-03-13 02:53:00,52.8,45.2,30.10,ENE,67,0.0,0.0,75,0.00,,,0.00,WUHU21623XXSP,2013-03-13 09:53:00,
2013-03-13 02:58:00,52.6,45.0,30.10,ENE,67,0.0,0.0,75,0.00,,,0.00,WUHU21623XXSP,2013-03-13 09:58:00,
2013-03-13 03:03:00,52.4,44.8,30.10,ENE,67,0.0,0.0,75,0.00,,,0.00,WUHU21623XXSP,2013-03-13 10:03:00,
2013-03-13 03:08:00,52.2,44.9,30.10,ENE,67,0.0,0.0,76,0.00,,,0.00,WUHU21623XXSP,2013-03-13 10:08:00,
2013-03-13 03:13:00,52.2,44.9,30.10,ENE,67,0.0,0.0,76,0.00,,,0.00,WUHU21623XXSP,2013-03-13 10:13:00,
2013-03-13 03:18:00,52.2,44.9,30.10,ENE,67,0.0,0.0,76,0.00,,,0.00,WUHU21623XXSP,2013-03-13 10:18:00,
2013-03-13 03:24:00,52.2,44.9,30.10,ENE,67,0.0,0.0,76,0.00,,,0.00,WUHU21623XXSP,2013-03-13 10:24:00,
2013-03-13 03:29:00,52.1,45.2,30.10,ENE,67,0.0,0.0,77,0.00,,,0.00,WUHU21623XXSP,2013-03-13 10:29:00,
2013-03-13 03:34:00,51.9,45.0,30.10,ENE,67,0.0,0.0,77,0.00,,,0.00,WUHU21623XXSP,2013-03-13 10:34:00,
2013-03-13 03:39:00,51.9,45.0,30.10,ENE,67,0.0,0.0,77,0.00,,,0.00,WUHU21623XXSP,2013-03-13 10:39:00,
2013-03-13 03:44:00,51.9,45.0,30.10,ENE,67,0.0,0.0,77,0.00,,,0.00,WUHU21623XXSP,2013-03-13 10:44:00,
2013-03-13 03:49:00,51.9,45.0,30.10,ENE,67,0.0,0.0,77,0.00,,,0.00,WUHU21623XXSP,2013-03-13 10:49:00,
2013-03-13 03:54:00,51.7,44.8,30.10,ENE,67,0.0,0.0,77,0.00,,,0.00,WUHU21623XXSP,2013-03-13 10:54:00,
2013-03-13 03:59:00,51.5,44.9,30.10,ENE,67,0.0,0.0,78,0.00,,,0.00,WUHU21623XXSP,2013-03-13 10:59:00,
2013-03-13 04:04:00,51.7,45.1,30.10,ENE,67,0.0,0.0,78,0.00,,,0.00,WUHU21623XXSP,2013-03-13 11:04:00,
2013-03-13 04:09:00,51.7,45.1,30.10,ENE,67,0.0,0.0,78,0.00,,,0.00,WUHU21623XXSP,2013-03-13 11:09:00,
2013-03-13 04:14:00,51.5,44.9,30.10,ENE,67,0.0,0.0,78,0.00,,,0.00,WUHU21623XXSP,2013-03-13 11:14:00,
2013-03-13 04:19:00,51.5,44.9,30.10,ENE,67,0.0,0.0,78,0.00,,,0.00,WUHU21623XXSP,2013-03-13 11:19:00,
2013-03-13 04:24:00,51.3,44.7,30.11,ENE,67,0.0,0.0,78,0.00,,,0.00,WUHU21623XXSP,2013-03-13 11:24:00,
2013-03-13 04:29:00,51.3,44.7,30.11,ENE,67,0.0,0.0,78,0.00,,,0.00,WUHU21623XXSP,2013-03-13 11:29:00,
2013-03-13 04:34:00,51.3,44.7,30.11,ENE,67,0.0,0.0,78,0.00,,,0.00,WUHU21623XXSP,2013-03-13 11:34:00,
2013-03-13 04:39:00,51.3,44.7,30.11,ENE,67,0.0,0.0,78,0.00,,,0.00,WUHU21623XXSP,2013-03-13 11:39:00,
2013-03-13 04:44:00,51.3,44.7,30.11,ENE,67,0.0,0.0,78,0.00,,,0.00,WUHU21623XXSP,2013-03-13 11:44:00,
2013-03-13 04:49:00,51.3,44.7,30.11,ENE,67,0.0,0.0,78,0.00,,,0.00,WUHU21623XXSP,2013-03-13 11:49:00,
2013-03-13 04:54:00,51.2,44.6,30.11,ENE,67,0.0,0.0,78,0.00,,,0.00,WUHU21623XXSP,2013-03-13 11:54:00,
2013-03-13 04:59:00,51.2,44.6,30.12,ENE,67,0.0,0.0,78,0.00,,,0.00,WUHU21623XXSP,2013-03-13 11:59:00,
2013-03-13 05:04:00,51.2,44.6,30.12,ENE,67,0.0,0.0,78,0.00,,,0.00,WUHU21623XXSP,2013-03-13 12:04:00,
2013-03-13 05:10:00,51.0,44.4,30.12,ENE,67,0.0,0.0,78,0.00,,,0.00,WUHU21623XXSP,2013-03-13 12:10:00,
2013-03-13 05:15:00,51.0,44.4,30.12,ENE,67,0.0,0.0,78,0.00,,,0.00,WUHU21623XXSP,2013-03-13 12:15:00,
2013-03-13 05:20:00,51.0,44.4,30.12,ENE,67,0.0,0.0,78,0.00,,,0.00,WUHU21623XXSP,2013-03-13 12:20:00,
2013-03-13 05:25:00,50.8,44.2,30.12,ENE,67,0.0,0.0,78,0.00,,,0.00,WUHU21623XXSP,2013-03-13 12:25:00,
2013-03-13 05:30:00,50.8,44.2,30.13,ENE,67,0.0,0.0,78,0.00,,,0.00,WUHU21623XXSP,2013-03-13 12:30:00,
2013-03-13 05:35:00,50.8,44.2,30.13,ENE,67,0.0,0.0,78,0.00,,,0.00,WUHU21623XXSP,2013-03-13 12:35:00,
2013-03-13 05:40:00,50.6,44.0,30.13,ENE,67,0.0,0.0,78,0.00,,,0.00,WUHU21623XXSP,2013-03-13 12:40:00,
2013-03-13 05:45:00,50.6,44.0,30.12,ENE,67,0.0,0.0,78,0.00,,,0.00,WUHU21623XXSP,2013-03-13 12:45:00,
2013-03-13 05:50:00,50.4,44.2,30.12,ENE,67,0.0,0.0,79,0.00,,,0.00,WUHU21623XXSP,2013-03-13 12:50:00,
2013-03-13 05:55:00,50.3,44.1,30.12,ENE,67,0.0,0.0,79,0.00,,,0.00,WUHU21623XXSP,2013-03-13 12:55:00,
2013-03-13 06:00:00,50.3,44.1,30.12,ENE,67,0.0,0.0,79,0.00,,,0.00,WUHU21623XXSP,2013-03-13 13:00:00,
2013-03-13 06:05:00,50.1,44.2,30.12,ENE,67,0.0,0.0,80,0.00,,,0.00,WUHU21623XXSP,2013-03-13 13:05:00,
2013-03-13 06:10:00,50.1,44.2,30.12,ENE,67,0.0,0.0,80,0.00,,,0.00,WUHU21623XXSP,2013-03-13 13:10:00,
2013-03-13 06:15:00,50.1,44.2,30.11,ENE,67,0.0,0.0,80,0.00,,,0.00,WUHU21623XXSP,2013-03-13 13:15:00,
2013-03-13 06:20:00,50.3,44.4,30.11,ENE,67,0.0,0.0,80,0.00,,,0.00,WUHU21623XXSP,2013-03-13 13:20:00,
2013-03-13 06:25:00,50.4,44.2,30.11,ENE,67,0.0,0.0,79,0.00,,,0.00,WUHU21623XXSP,2013-03-13 13:25:00,
2013-03-13 06:30:00,50.3,44.1,30.11,ENE,67,0.0,0.0,79,0.00,,,0.00,WUHU21623XXSP,2013-03-13 13:30:00,
2013-03-13 06:35:00,50.1,43.9,30.11,ENE,67,0.0,0.0,79,0.00,,,0.00,WUHU21623XXSP,2013-03-13 13:35:00,
2013-03-13 06:40:00,50.1,43.9,30.12,ENE,67,0.0,0.0,79,0.00,,,0.00,WUHU21623XXSP,2013-03-13 13:40:00,
2013-03-13 06:46:00,50.1,43.9,30.12,ENE,67,0.0,0.0,79,0.00,,,0.00,WUHU21623XXSP,2013-03-13 13:46:00,
2013-03-13 06:51:00,50.1,43.9,30.12,ENE,67,0.0,0.0,79,0.00,,,0.00,WUHU21623XXSP,2013-03-13 13:51:00,
2013-03-13 06:56:00,50.1,43.9,30.12,ENE,67,0.0,0.0,79,0.00,,,0.00,WUHU21623XXSP,2013-03-13 13:56:00,
2013-03-13 07:01:00,49.9,44.0,30.12,ENE,67,0.0,0.0,80,0.00,,,0.00,WUHU21623XXSP,2013-03-13 14:01:00,
2013-03-13 07:06:00,49.7,43.5,30.12,ENE,67,0.0,0.0,79,0.00,,,0.00,WUHU21623XXSP,2013-03-13 14:06:00,
2013-03-13 07:11:00,49.7,43.8,30.12,ENE,67,0.0,0.0,80,0.00,,,0.00,WUHU21623XXSP,2013-03-13 14:11:00,
2013-03-13 07:16:00,49.5,43.6,30.12,ENE,67,0.0,0.0,80,0.00,,,0.00,WUHU21623XXSP,2013-03-13 14:16:00,
2013-03-13 07:21:00,49.4,43.5,30.13,ENE,67,0.0,0.0,80,0.00,,,0.00,WUHU21623XXSP,2013-03-13 14:21:00,
2013-03-13 07:26:00,49.2,43.3,30.13,ENE,67,0.0,0.0,80,0.00,,,0.00,WUHU21623XXSP,2013-03-13 14:26:00,
2013-03-13 07:32:00,49.2,43.6,30.13,ENE,67,0.0,0.0,81,0.00,,,0.00,WUHU21623XXSP,2013-03-13 14:32:00,
2013-03-13 07:37:00,48.8,43.3,30.13,ENE,67,0.0,0.0,81,0.00,,,0.00,WUHU21623XXSP,2013-03-13 14:37:00,
2013-03-13 07:42:00,48.8,43.3,30.13,ENE,67,0.0,0.0,81,0.00,,,0.00,WUHU21623XXSP,2013-03-13 14:42:00,
2013-03-13 07:47:00,48.8,43.3,30.13,ENE,67,0.0,0.0,81,0.00,,,0.00,WUHU21623XXSP,2013-03-13 14:47:00,
2013-03-13 07:52:00,48.8,43.3,30.13,ENE,67,0.0,0.0,81,0.00,,,0.00,WUHU21623XXSP,2013-03-13 14:52:00,
2013-03-13 07:57:00,49.0,43.4,30.13,ENE,67,0.0,0.0,81,0.00,,,0.00,WUHU21623XXSP,2013-03-13 14:57:00,
2013-03-13 08:02:00,48.8,43.3,30.13,ENE,67,0.0,0.0,81,0.00,,,0.00,WUHU21623XXSP,2013-03-13 15:02:00,
2013-03-13 08:07:00,49.2,43.6,30.13,ENE,67,0.0,0.0,81,0.00,,,0.00,WUHU21623XXSP,2013-03-13 15:07:00,
2013-03-13 08:12:00,49.2,43.6,30.13,ENE,67,0.0,0.0,81,0.00,,,0.00,WUHU21623XXSP,2013-03-13 15:12:00,
2013-03-13 08:17:00,49.2,44.0,30.14,ENE,67,0.0,0.0,82,0.00,,,0.00,WUHU21623XXSP,2013-03-13 15:17:00,
2013-03-13 08:22:00,49.2,44.0,30.14,ENE,67,0.0,0.0,82,0.00,,,0.00,WUHU21623XXSP,2013-03-13 15:22:00,
2013-03-13 08:27:00,49.9,44.3,30.14,ENE,67,0.0,0.0,81,0.00,,,0.00,WUHU21623XXSP,2013-03-13 15:27:00,
2013-03-13 08:32:00,50.1,44.5,30.14,ENE,67,0.0,0.0,81,0.00,,,0.00,WUHU21623XXSP,2013-03-13 15:32:00,
2013-03-13 08:37:00,50.6,45.0,30.14,ENE,67,0.0,0.0,81,0.00,,,0.00,WUHU21623XXSP,2013-03-13 15:37:00,
2013-03-13 08:42:00,50.8,45.2,30.15,ENE,67,0.0,0.0,81,0.00,,,0.00,WUHU21623XXSP,2013-03-13 15:42:00,
2013-03-13 08:47:00,51.2,45.3,30.15,ENE,67,0.0,0.0,80,0.00,,,0.00,WUHU21623XXSP,2013-03-13 15:47:00,
2013-03-13 08:52:00,51.3,45.4,30.15,ENE,67,0.0,0.0,80,0.00,,,0.00,WUHU21623XXSP,2013-03-13 15:52:00,
2013-03-13 08:57:00,52.1,46.2,30.14,ENE,67,0.0,0.0,80,0.00,,,0.00,WUHU21623XXSP,2013-03-13 15:57:00,
2013-03-13 09:02:00,52.4,46.4,30.14,ENE,67,0.0,0.0,80,0.00,,,0.00,WUHU21623XXSP,2013-03-13 16:02:00,
2013-03-13 09:07:00,52.8,46.5,30.14,ENE,67,0.0,0.0,79,0.00,,,0.00,WUHU21623XXSP,2013-03-13 16:07:00,
2013-03-13 09:12:00,53.5,47.2,30.14,East,90,0.0,0.0,79,0.00,,,0.00,WUHU21623XXSP,2013-03-13 16:12:00,
2013-03-13 09:17:00,54.2,47.2,30.14,ESE,112,0.0,0.0,77,0.00,,,0.00,WUHU21623XXSP,2013-03-13 16:17:00,
2013-03-13 09:22:00,54.8,47.5,30.15,ESE,112,0.0,0.0,76,0.00,,,0.00,WUHU21623XXSP,2013-03-13 16:22:00,
2013-03-13 09:27:00,54.8,47.1,30.15,ESE,112,0.0,0.0,75,0.00,,,0.00,WUHU21623XXSP,2013-03-13 16:27:00,
2013-03-13 09:32:00,54.9,47.2,30.15,East,90,0.0,0.0,75,0.00,,,0.00,WUHU21623XXSP,2013-03-13 16:32:00,
2013-03-13 09:38:00,54.9,47.2,30.15,SSW,202,0.0,0.0,75,0.00,,,0.00,WUHU21623XXSP,2013-03-13 16:38:00,
2013-03-13 09:42:00,55.1,47.4,30.15,SSW,202,0.0,0.0,75,0.00,,,0.00,WUHU21623XXSP,2013-03-13 16:42:00,
2013-03-13 09:47:00,55.5,47.8,30.15,WSW,247,0.0,0.0,75,0.00,,,0.00,WUHU21623XXSP,2013-03-13 16:47:00,
2013-03-13 09:53:00,55.8,48.1,30.15,WSW,247,0.0,0.0,75,0.00,,,0.00,WUHU21623XXSP,2013-03-13 16:53:00,
2013-03-13 09:58:00,56.0,47.9,30.15,WNW,292,0.0,0.0,74,0.00,,,0.00,WUHU21623XXSP,2013-03-13 16:58:00,
2013-03-13 10:03:00,56.4,48.3,30.15,WNW,292,0.0,0.0,74,0.00,,,0.00,WUHU21623XXSP,2013-03-13 17:03:00,
2013-03-13 10:07:00,56.9,48.8,30.15,West,270,0.0,0.0,74,0.00,,,0.00,WUHU21623XXSP,2013-03-13 17:07:00,
2013-03-13 10:12:00,57.5,49.4,30.15,South,180,0.0,0.0,74,0.00,,,0.00,WUHU21623XXSP,2013-03-13 17:12:00,
2013-03-13 10:17:00,58.0,49.1,30.15,South,180,0.0,0.0,72,0.00,,,0.00,WUHU21623XXSP,2013-03-13 17:17:00,
2013-03-13 10:22:00,58.5,49.3,30.15,South,180,0.0,0.0,71,0.00,,,0.00,WUHU21623XXSP,2013-03-13 17:22:00,
2013-03-13 10:27:00,58.7,49.4,30.15,SW,225,0.0,6.3,71,0.00,,,0.00,WUHU21623XXSP,2013-03-13 17:27:00,
2013-03-13 10:32:00,59.3,49.6,30.15,WNW,292,0.0,6.3,70,0.00,,,0.00,WUHU21623XXSP,2013-03-13 17:32:00,
2013-03-13 10:37:00,59.8,49.7,30.15,West,270,0.0,0.0,69,0.00,,,0.00,WUHU21623XXSP,2013-03-13 17:37:00,
2013-03-13 10:42:00,60.3,49.8,30.15,NNW,337,0.0,0.0,68,0.00,,,0.00,WUHU21623XXSP,2013-03-13 17:42:00,
2013-03-13 10:47:00,60.7,49.8,30.15,SW,225,0.0,0.0,67,0.00,,,0.00,WUHU21623XXSP,2013-03-13 17:47:00,
2013-03-13 10:52:00,61.4,50.1,30.16,South,180,0.0,3.3,66,0.00,,,0.00,WUHU21623XXSP,2013-03-13 17:52:00,
2013-03-13 10:58:00,62.0,50.3,30.15,South,180,0.0,3.3,65,0.00,,,0.00,WUHU21623XXSP,2013-03-13 17:58:00,
2013-03-13 11:03:00,62.7,50.5,30.15,SSW,202,0.0,0.0,64,0.00,,,0.00,WUHU21623XXSP,2013-03-13 18:03:00,
2013-03-13 11:08:00,62.7,49.6,30.15,West,270,0.0,0.0,62,0.00,,,0.00,WUHU21623XXSP,2013-03-13 18:08:00,
2013-03-13 11:13:00,63.2,50.1,30.15,South,180,0.0,4.5,62,0.00,,,0.00,WUHU21623XXSP,2013-03-13 18:13:00,
2013-03-13 11:18:00,64.3,50.3,30.15,South,180,0.0,4.5,60,0.00,,,0.00,WUHU21623XXSP,2013-03-13 18:18:00,
2013-03-13 11:23:00,64.8,50.7,30.15,SSW,202,0.0,5.0,60,0.00,,,0.00,WUHU21623XXSP,2013-03-13 18:23:00,
2013-03-13 11:28:00,65.6,51.0,30.15,WNW,292,0.0,5.0,59,0.00,,,0.00,WUHU21623XXSP,2013-03-13 18:28:00,
2013-03-13 11:33:00,66.3,50.7,30.15,North,0,0.0,5.0,57,0.00,,,0.00,WUHU21623XXSP,2013-03-13 18:33:00,
2013-03-13 11:38:00,67.2,51.1,30.15,SW,225,0.0,7.3,56,0.00,,,0.00,WUHU21623XXSP,2013-03-13 18:38:00,
2013-03-13 11:43:00,67.9,51.3,30.15,SSE,157,0.0,7.3,55,0.00,,,0.00,WUHU21623XXSP,2013-03-13 18:43:00,
2013-03-13 11:48:00,68.6,51.4,30.15,NW,315,0.0,3.3,54,0.00,,,0.00,WUHU21623XXSP,2013-03-13 18:48:00,
2013-03-13 11:53:00,69.3,52.1,30.15,WNW,292,0.0,4.5,54,0.00,,,0.00,WUHU21623XXSP,2013-03-13 18:53:00,
2013-03-13 11:58:00,70.4,52.6,30.15,West,270,0.0,7.8,53,0.00,,,0.00,WUHU21623XXSP,2013-03-13 18:58:00,
2013-03-13 12:03:00,70.6,52.2,30.14,NNE,22,0.0,7.8,52,0.00,,,0.00,WUHU21623XXSP,2013-03-13 19:03:00,
2013-03-13 12:08:00,70.4,52.0,30.14,NNW,337,0.0,11.8,52,0.00,,,0.00,WUHU21623XXSP,2013-03-13 19:08:00,
2013-03-13 12:13:00,70.4,52.0,30.14,NNW,337,0.0,11.8,52,0.00,,,0.00,WUHU21623XXSP,2013-03-13 19:13:00,
2013-03-13 12:18:00,71.1,52.1,30.14,ENE,67,5.5,5.5,51,0.00,,,0.00,WUHU21623XXSP,2013-03-13 19:18:00,
2013-03-13 12:23:00,72.0,52.4,30.13,ENE,67,0.0,7.3,50,0.00,,,0.00,WUHU21623XXSP,2013-03-13 19:23:00,
2013-03-13 12:28:00,72.9,52.7,30.13,South,180,3.3,10.0,49,0.00,,,0.00,WUHU21623XXSP,2013-03-13 19:28:00,
2013-03-13 12:33:00,73.1,52.3,30.13,South,180,0.0,10.0,48,0.00,,,0.00,WUHU21623XXSP,2013-03-13 19:33:00,
2013-03-13 12:38:00,73.5,52.1,30.13,North,0,0.0,6.8,47,0.00,,,0.00,WUHU21623XXSP,2013-03-13 19:38:00,
2013-03-13 12:43:00,74.0,52.5,30.12,ENE,67,0.0,4.5,47,0.00,,,0.00,WUHU21623XXSP,2013-03-13 19:43:00,
2013-03-13 12:48:00,74.6,52.5,30.12,North,0,0.0,7.8,46,0.00,,,0.00,WUHU21623XXSP,2013-03-13 19:48:00,
2013-03-13 12:53:00,74.7,52.6,30.12,West,270,2.8,7.8,46,0.00,,,0.00,WUHU21623XXSP,2013-03-13 19:53:00,
2013-03-13 12:58:00,75.6,53.4,30.12,West,270,0.0,6.8,46,0.00,,,0.00,WUHU21623XXSP,2013-03-13 19:58:00,
2013-03-13 13:03:00,75.6,52.1,30.12,East,90,4.5,9.0,44,0.00,,,0.00,WUHU21623XXSP,2013-03-13 20:03:00,
2013-03-13 13:08:00,75.8,52.9,30.12,NNW,337,0.0,9.0,45,0.00,,,0.00,WUHU21623XXSP,2013-03-13 20:08:00,
2013-03-13 13:13:00,76.0,53.1,30.12,NW,315,0.0,4.5,45,0.00,,,0.00,WUHU21623XXSP,2013-03-13 20:13:00,
2013-03-13 13:18:00,76.2,53.3,30.11,NNW,337,0.0,8.5,45,0.00,,,0.00,WUHU21623XXSP,2013-03-13 20:18:00,
2013-03-13 13:23:00,76.2,52.7,30.11,WNW,292,0.0,9.5,44,0.00,,,0.00,WUHU21623XXSP,2013-03-13 20:23:00,
2013-03-13 13:28:00,75.8,52.9,30.11,WNW,292,2.8,9.5,45,0.00,,,0.00,WUHU21623XXSP,2013-03-13 20:28:00,
2013-03-13 13:33:00,75.8,52.3,30.11,South,180,0.0,6.8,44,0.00,,,0.00,WUHU21623XXSP,2013-03-13 20:33:00,
2013-03-13 13:38:00,77.1,53.5,30.10,SW,225,0.0,2.8,44,0.00,,,0.00,WUHU21623XXSP,2013-03-13 20:38:00,
2013-03-13 13:43:00,77.1,52.2,30.10,NW,315,0.0,4.0,42,0.00,,,0.00,WUHU21623XXSP,2013-03-13 20:43:00,
2013-03-13 13:48:00,76.2,52.0,30.10,NE,45,0.0,8.5,43,0.00,,,0.00,WUHU21623XXSP,2013-03-13 20:48:00,
2013-03-13 13:53:00,76.4,52.9,30.10,WNW,292,4.0,9.0,44,0.00,,,0.00,WUHU21623XXSP,2013-03-13 20:53:00,
2013-03-13 13:58:00,76.5,52.9,30.09,North,0,0.0,12.3,44,0.00,,,0.00,WUHU21623XXSP,2013-03-13 20:58:00,
2013-03-13 14:03:00,76.4,52.2,30.09,WNW,292,4.0,15.0,43,0.00,,,0.00,WUHU21623XXSP,2013-03-13 21:03:00,
2013-03-13 14:08:00,75.8,51.7,30.09,West,270,0.0,15.0,43,0.00,,,0.00,WUHU21623XXSP,2013-03-13 21:08:00,
2013-03-13 14:13:00,76.5,52.3,30.09,West,270,0.0,10.8,43,0.00,,,0.00,WUHU21623XXSP,2013-03-13 21:13:00,
2013-03-13 14:18:00,77.4,52.5,30.09,SSW,202,4.5,12.3,42,0.00,,,0.00,WUHU21623XXSP,2013-03-13 21:18:00,
2013-03-13 14:23:00,78.0,52.3,30.08,West,270,0.0,12.3,41,0.00,,,0.00,WUHU21623XXSP,2013-03-13 21:23:00,
2013-03-13 14:28:00,77.6,52.0,30.09,NNE,22,0.0,7.3,41,0.00,,,0.00,WUHU21623XXSP,2013-03-13 21:28:00,
2013-03-13 14:33:00,77.6,52.6,30.09,West,270,0.0,6.8,42,0.00,,,0.00,WUHU21623XXSP,2013-03-13 21:33:00,
2013-03-13 14:38:00,77.4,51.8,30.08,WSW,247,2.8,10.0,41,0.00,,,0.00,WUHU21623XXSP,2013-03-13 21:38:00,
2013-03-13 14:43:00,77.6,52.0,30.08,North,0,5.0,13.5,41,0.00,,,0.00,WUHU21623XXSP,2013-03-13 21:43:00,
2013-03-13 14:48:00,78.0,52.3,30.08,NW,315,12.3,16.8,41,0.00,,,0.00,WUHU21623XXSP,2013-03-13 21:48:00,
2013-03-13 14:53:00,78.0,52.3,30.08,West,270,0.0,16.8,41,0.00,,,0.00,WUHU21623XXSP,2013-03-13 21:53:00,
2013-03-13 14:58:00,78.0,52.3,30.08,WNW,292,0.0,16.8,41,0.00,,,0.00,WUHU21623XXSP,2013-03-13 21:58:00,
2013-03-13 15:03:00,77.6,52.0,30.08,WNW,292,6.3,16.8,41,0.00,,,0.00,WUHU21623XXSP,2013-03-13 22:03:00,
2013-03-13 15:08:00,77.4,51.8,30.07,WSW,247,5.0,18.5,41,0.00,,,0.00,WUHU21623XXSP,2013-03-13 22:08:00,
2013-03-13 15:13:00,77.3,52.4,30.07,NW,315,0.0,18.5,42,0.00,,,0.00,WUHU21623XXSP,2013-03-13 22:13:00,
2013-03-13 15:18:00,76.9,52.0,30.07,WNW,292,6.3,11.8,42,0.00,,,0.00,WUHU21623XXSP,2013-03-13 22:18:00,
2013-03-13 15:23:00,76.7,51.8,30.08,NW,315,0.0,9.5,42,0.00,,,0.00,WUHU21623XXSP,2013-03-13 22:23:00,
2013-03-13 15:28:00,76.5,51.6,30.07,SW,225,9.0,9.5,42,0.00,,,0.00,WUHU21623XXSP,2013-03-13 22:28:00,
2013-03-13 15:33:00,76.5,51.6,30.07,West,270,6.8,9.5,42,0.00,,,0.00,WUHU21623XXSP,2013-03-13 22:33:00,
2013-03-13 15:38:00,75.8,51.7,30.07,NW,315,3.3,9.0,43,0.00,,,0.00,WUHU21623XXSP,2013-03-13 22:38:00,
2013-03-13 15:43:00,75.8,50.3,30.07,NNW,337,0.0,10.0,41,0.00,,,0.00,WUHU21623XXSP,2013-03-13 22:43:00,
2013-03-13 15:48:00,75.8,51.0,30.07,WNW,292,0.0,10.0,42,0.00,,,0.00,WUHU21623XXSP,2013-03-13 22:48:00,
2013-03-13 15:53:00,75.8,51.0,30.07,West,270,0.0,5.5,42,0.00,,,0.00,WUHU21623XXSP,2013-03-13 22:53:00,
2013-03-13 15:58:00,75.8,50.3,30.07,ENE,67,5.5,9.5,41,0.00,,,0.00,WUHU21623XXSP,2013-03-13 22:58:00,
2013-03-13 16:03:00,75.6,50.8,30.06,West,270,0.0,9.5,42,0.00,,,0.00,WUHU21623XXSP,2013-03-13 23:03:00,
2013-03-13 16:08:00,75.5,50.1,30.06,WNW,292,0.0,7.3,41,0.00,,,0.00,WUHU21623XXSP,2013-03-13 23:08:00,
2013-03-13 16:13:00,75.3,48.5,30.06,NE,45,0.0,5.5,39,0.00,,,0.00,WUHU21623XXSP,2013-03-13 23:13:00,
2013-03-13 16:18:00,74.9,48.2,30.06,ENE,67,2.3,7.3,39,0.00,,,0.00,WUHU21623XXSP,2013-03-13 23:18:00,
2013-03-13 16:23:00,75.1,49.0,30.06,West,270,2.8,7.3,40,0.00,,,0.00,WUHU21623XXSP,2013-03-13 23:23:00,
2013-03-13 16:28:00,75.5,49.4,30.06,NW,315,5.0,6.3,40,0.00,,,0.00,WUHU21623XXSP,2013-03-13 23:28:00,
2013-03-13 16:34:00,75.3,49.9,30.06,WNW,292,2.8,6.3,41,0.00,,,0.00,WUHU21623XXSP,2013-03-13 23:34:00,
2013-03-13 16:39:00,75.3,49.9,30.06,NNE,22,0.0,5.5,41,0.00,,,0.00,WUHU21623XXSP,2013-03-13 23:39:00,
2013-03-13 16:43:00,75.3,50.6,30.06,NW,315,0.0,15.0,42,0.00,,,0.00,WUHU21623XXSP,2013-03-13 23:43:00,
2013-03-13 16:49:00,75.3,49.9,30.06,WNW,292,0.0,15.0,41,0.00,,,0.00,WUHU21623XXSP,2013-03-13 23:49:00,
2013-03-13 16:54:00,75.6,50.2,30.05,NW,315,0.0,7.3,41,0.00,,,0.00,WUHU21623XXSP,2013-03-13 23:54:00,
2013-03-13 16:58:00,75.3,49.2,30.05,WNW,292,0.0,10.0,40,0.00,,,0.00,WUHU21623XXSP,2013-03-13 23:58:00,
2013-03-13 17:04:00,75.3,49.2,30.05,NNE,22,0.0,17.3,40,0.00,,,0.00,WUHU21623XXSP,2013-03-14 00:04:00,
2013-03-13 17:09:00,75.3,49.9,30.05,NNE,22,0.0,17.3,41,0.00,,,0.00,WUHU21623XXSP,2013-03-14 00:09:00,
2013-03-13 17:14:00,75.3,49.2,30.05,NNE,22,0.0,5.0,40,0.00,,,0.00,WUHU21623XXSP,2013-03-14 00:14:00,
2013-03-13 17:19:00,75.1,49.0,30.04,North,0,0.0,6.8,40,0.00,,,0.00,WUHU21623XXSP,2013-03-14 00:19:00,
2013-03-13 17:24:00,74.7,49.3,30.04,NE,45,0.0,6.8,41,0.00,,,0.00,WUHU21623XXSP,2013-03-14 00:24:00,
2013-03-13 17:29:00,74.7,50.0,30.04,WNW,292,0.0,5.5,42,0.00,,,0.00,WUHU21623XXSP,2013-03-14 00:29:00,
2013-03-13 17:34:00,74.9,49.5,30.04,West,270,8.5,8.5,41,0.00,,,0.00,WUHU21623XXSP,2013-03-14 00:34:00,
2013-03-13 17:39:00,74.9,49.5,30.04,WNW,292,0.0,8.5,41,0.00,,,0.00,WUHU21623XXSP,2013-03-14 00:39:00,
2013-03-13 17:44:00,74.7,50.0,30.04,West,270,1.8,8.5,42,0.00,,,0.00,WUHU21623XXSP,2013-03-14 00:44:00,
2013-03-13 17:49:00,74.7,50.0,30.04,WNW,292,0.0,4.0,42,0.00,,,0.00,WUHU21623XXSP,2013-03-14 00:49:00,
2013-03-13 17:54:00,74.6,49.3,30.03,WNW,292,0.0,7.3,41,0.00,,,0.00,WUHU21623XXSP,2013-03-14 00:54:00,
2013-03-13 17:59:00,74.4,49.7,30.03,West,270,0.0,7.3,42,0.00,,,0.00,WUHU21623XXSP,2013-03-14 00:59:00,
2013-03-13 18:04:00,74.4,49.7,30.03,NE,45,0.0,3.3,42,0.00,,,0.00,WUHU21623XXSP,2013-03-14 01:04:00,
2013-03-13 18:09:00,74.0,48.7,30.04,NE,45,0.0,3.3,41,0.00,,,0.00,WUHU21623XXSP,2013-03-14 01:09:00,
2013-03-13 18:15:00,74.0,49.4,30.04,NE,45,0.0,6.3,42,0.00,,,0.00,WUHU21623XXSP,2013-03-14 01:15:00,
2013-03-13 18:20:00,74.0,49.4,30.04,NE,45,0.0,6.3,42,0.00,,,0.00,WUHU21623XXSP,2013-03-14 01:20:00,
2013-03-13 18:25:00,73.8,49.2,30.03,NE,45,0.0,0.0,42,0.00,,,0.00,WUHU21623XXSP,2013-03-14 01:25:00,
2013-03-13 18:30:00,73.8,49.2,30.03,NE,45,0.0,0.0,42,0.00,,,0.00,WUHU21623XXSP,2013-03-14 01:30:00,
2013-03-13 18:35:00,73.5,48.9,30.03,NE,45,0.0,0.0,42,0.00,,,0.00,WUHU21623XXSP,2013-03-14 01:35:00,
2013-03-13 18:40:00,73.1,49.2,30.03,NE,45,0.0,0.0,43,0.00,,,0.00,WUHU21623XXSP,2013-03-14 01:40:00,
2013-03-13 18:45:00,72.6,49.4,30.03,NE,45,0.0,0.0,44,0.00,,,0.00,WUHU21623XXSP,2013-03-14 01:45:00,
2013-03-13 18:50:00,72.2,49.0,30.03,NE,45,0.0,0.0,44,0.00,,,0.00,WUHU21623XXSP,2013-03-14 01:50:00,
2013-03-13 18:55:00,71.7,49.2,30.03,NE,45,0.0,0.0,45,0.00,,,0.00,WUHU21623XXSP,2013-03-14 01:55:00,
2013-03-13 19:00:00,71.3,49.4,30.03,NE,45,0.0,0.0,46,0.00,,,0.00,WUHU21623XXSP,2013-03-14 02:00:00,
2013-03-13 19:05:00,71.0,49.8,30.04,NE,45,0.0,0.0,47,0.00,,,0.00,WUHU21623XXSP,2013-03-14 02:05:00,
2013-03-13 19:10:00,70.2,49.6,30.04,NE,45,0.0,0.0,48,0.00,,,0.00,WUHU21623XXSP,2013-03-14 02:10:00,
2013-03-13 19:15:00,69.9,49.9,30.04,NE,45,0.0,0.0,49,0.00,,,0.00,WUHU21623XXSP,2013-03-14 02:15:00,
2013-03-13 19:20:00,69.3,49.9,30.03,NE,45,0.0,0.0,50,0.00,,,0.00,WUHU21623XXSP,2013-03-14 02:20:00,
2013-03-13 19:25:00,68.6,50.4,30.03,NE,45,0.0,0.0,52,0.00,,,0.00,WUHU21623XXSP,2013-03-14 02:25:00,
2013-03-13 19:30:00,68.4,50.2,30.03,NE,45,0.0,0.0,52,0.00,,,0.00,WUHU21623XXSP,2013-03-14 02:30:00,
2013-03-13 19:35:00,67.9,50.2,30.03,NE,45,0.0,0.0,53,0.00,,,0.00,WUHU21623XXSP,2013-03-14 02:35:00,
2013-03-13 19:40:00,67.5,50.4,30.03,NE,45,0.0,0.0,54,0.00,,,0.00,WUHU21623XXSP,2013-03-14 02:40:00,
2013-03-13 19:45:00,67.4,50.3,30.04,NE,45,0.0,0.0,54,0.00,,,0.00,WUHU21623XXSP,2013-03-14 02:45:00,
2013-03-13 19:50:00,66.8,50.2,30.04,NE,45,0.0,0.0,55,0.00,,,0.00,WUHU21623XXSP,2013-03-14 02:50:00,
2013-03-13 19:55:00,66.6,49.5,30.04,NE,45,0.0,0.0,54,0.00,,,0.00,WUHU21623XXSP,2013-03-14 02:55:00,
2013-03-13 20:00:00,66.3,49.3,30.04,NE,45,0.0,0.0,54,0.00,,,0.00,WUHU21623XXSP,2013-03-14 03:00:00,
2013-03-13 20:05:00,65.7,49.2,30.04,NE,45,0.0,0.0,55,0.00,,,0.00,WUHU21623XXSP,2013-03-14 03:05:00,
2013-03-13 20:10:00,65.7,49.2,30.03,NE,45,0.0,0.0,55,0.00,,,0.00,WUHU21623XXSP,2013-03-14 03:10:00,
2013-03-13 20:15:00,65.4,49.4,30.03,NE,45,0.0,0.0,56,0.00,,,0.00,WUHU21623XXSP,2013-03-14 03:15:00,
2013-03-13 20:20:00,65.0,49.5,30.03,NE,45,0.0,0.0,57,0.00,,,0.00,WUHU21623XXSP,2013-03-14 03:20:00,
2013-03-13 20:25:00,64.8,49.3,30.03,NE,45,0.0,0.0,57,0.00,,,0.00,WUHU21623XXSP,2013-03-14 03:25:00,
2013-03-13 20:30:00,64.3,49.3,30.03,NE,45,0.0,0.0,58,0.00,,,0.00,WUHU21623XXSP,2013-03-14 03:30:00,
2013-03-13 20:35:00,63.9,49.0,30.03,NE,45,0.0,0.0,58,0.00,,,0.00,WUHU21623XXSP,2013-03-14 03:35:00,
2013-03-13 20:40:00,63.9,49.0,30.03,NE,45,0.0,0.0,58,0.00,,,0.00,WUHU21623XXSP,2013-03-14 03:40:00,
2013-03-13 20:45:00,63.6,48.7,30.03,NE,45,0.0,0.0,58,0.00,,,0.00,WUHU21623XXSP,2013-03-14 03:45:00,
2013-03-13 20:50:00,63.4,49.0,30.03,NE,45,0.0,0.0,59,0.00,,,0.00,WUHU21623XXSP,2013-03-14 03:50:00,
2013-03-13 20:55:00,63.2,48.8,30.03,NE,45,0.0,0.0,59,0.00,,,0.00,WUHU21623XXSP,2013-03-14 03:55:00,
2013-03-13 21:00:00,63.0,48.6,30.03,NE,45,0.0,0.0,59,0.00,,,0.00,WUHU21623XXSP,2013-03-14 04:00:00,
2013-03-13 21:05:00,62.3,48.4,30.04,NE,45,0.0,0.0,60,0.00,,,0.00,WUHU21623XXSP,2013-03-14 04:05:00,
2013-03-13 21:10:00,62.0,48.5,30.04,NE,45,0.0,0.0,61,0.00,,,0.00,WUHU21623XXSP,2013-03-14 04:10:00,
2013-03-13 21:15:00,62.0,48.5,30.04,NE,45,0.0,0.0,61,0.00,,,0.00,WUHU21623XXSP,2013-03-14 04:15:00,
2013-03-13 21:22:00,61.8,48.8,30.03,NE,45,0.0,0.0,62,0.00,,,0.00,WUHU21623XXSP,2013-03-14 04:22:00,